createdAt,value
2022-12-18T00:01:46.315Z,15.43
2022-12-18T00:04:48.416Z,16.15
2022-12-18T00:07:50.573Z,14.18
2022-12-18T00:10:52.624Z,16.70
2022-12-18T00:13:57.562Z,13.60
2022-12-18T00:17:01.837Z,14.88
2022-12-18T00:20:04.694Z,14.15
2022-12-18T00:23:08.028Z,14.10
2022-12-18T00:26:19.882Z,13.90
2022-12-18T00:29:21.811Z,14.27
2022-12-18T00:32:24.127Z,13.05
2022-12-18T00:35:26.260Z,13.85
2022-12-18T00:38:30.010Z,13.63
2022-12-18T00:41:50.880Z,12.38
2022-12-18T00:44:53.021Z,12.40
2022-12-18T00:47:55.739Z,11.35
2022-12-18T00:50:58.818Z,13.48
2022-12-18T00:54:01.033Z,11.15
2022-12-18T00:57:03.829Z,11.52
2022-12-18T01:00:09.013Z,12.68
2022-12-18T01:03:15.147Z,11.80
2022-12-18T01:06:19.641Z,11.20
2022-12-18T01:09:22.288Z,10.13
2022-12-18T01:12:24.475Z,11.35
2022-12-18T01:15:27.162Z,10.60
2022-12-18T01:18:29.279Z,12.88
2022-12-18T01:21:34.196Z,10.85
2022-12-18T01:24:39.640Z,11.95
2022-12-18T01:27:41.798Z,11.35
2022-12-18T01:30:43.771Z,12.07
2022-12-18T01:33:46.756Z,11.30
2022-12-18T01:36:48.803Z,10.55
2022-12-18T01:39:51.216Z,12.02
2022-12-18T01:42:54.533Z,12.38
2022-12-18T01:46:00.336Z,11.55
2022-12-18T01:49:02.928Z,12.68
2022-12-18T01:52:05.016Z,11.05
2022-12-18T01:55:09.409Z,12.13
2022-12-18T01:58:11.526Z,12.73
2022-12-18T02:01:15.139Z,14.07
2022-12-18T02:04:21.423Z,11.27
2022-12-18T02:07:33.119Z,13.25
2022-12-18T02:10:54.551Z,12.88
2022-12-18T02:14:31.509Z,10.50
2022-12-18T02:17:48.538Z,11.95
2022-12-18T02:21:16.382Z,12.18
2022-12-18T02:24:41.357Z,11.45
2022-12-18T02:27:47.651Z,11.77
2022-12-18T02:30:54.560Z,12.57
2022-12-18T02:34:02.629Z,12.80
2022-12-18T02:37:13.490Z,11.95
2022-12-18T02:40:18.317Z,12.57
2022-12-18T02:43:20.746Z,12.77
2022-12-18T02:46:42.875Z,14.13
2022-12-18T02:50:11.316Z,11.98
2022-12-18T02:53:24.879Z,15.30
2022-12-18T02:56:36.286Z,13.60
2022-12-18T02:59:48.928Z,12.65
2022-12-18T03:03:03.327Z,14.00
2022-12-18T03:06:38.590Z,13.20
2022-12-18T03:09:44.910Z,12.63
2022-12-18T03:12:55.814Z,12.77
2022-12-18T03:16:00.810Z,13.88
2022-12-18T03:19:07.964Z,13.55
2022-12-18T03:22:11.801Z,16.17
2022-12-18T03:25:22.634Z,12.95
2022-12-18T03:28:35.092Z,14.00
2022-12-18T03:31:44.129Z,14.70
2022-12-18T03:34:50.661Z,12.90
2022-12-18T03:37:55.740Z,14.13
2022-12-18T03:41:08.829Z,14.07
2022-12-18T03:44:38.605Z,13.55
2022-12-18T03:48:02.743Z,14.40
2022-12-18T03:51:23.708Z,15.27
2022-12-18T03:54:28.463Z,13.88
2022-12-18T03:57:39.896Z,13.73
2022-12-18T04:00:44.756Z,13.65
2022-12-18T04:03:51.287Z,12.88
2022-12-18T04:06:56.481Z,14.70
2022-12-18T04:10:02.078Z,13.57
2022-12-18T04:13:06.282Z,13.70
2022-12-18T04:16:10.655Z,14.30
2022-12-18T04:19:16.757Z,15.27
2022-12-18T04:22:21.705Z,14.27
2022-12-18T04:25:29.394Z,14.17
2022-12-18T04:28:41.608Z,15.25
2022-12-18T04:31:44.648Z,15.88
2022-12-18T04:34:47.390Z,14.85
2022-12-18T04:37:49.510Z,14.82
2022-12-18T04:40:51.989Z,14.50
2022-12-18T04:47:02.674Z,15.50
2022-12-18T04:50:05.371Z,16.23
2022-12-18T04:53:07.758Z,15.10
2022-12-18T04:56:12.903Z,15.20
2022-12-18T04:59:14.946Z,15.85
2022-12-18T05:02:17.190Z,15.43
2022-12-18T05:05:19.255Z,16.10
2022-12-18T05:08:21.497Z,16.27
2022-12-18T05:11:23.699Z,14.00
2022-12-18T05:14:26.048Z,16.58
2022-12-18T05:17:28.062Z,15.55
2022-12-18T05:20:30.224Z,16.20
2022-12-18T05:23:37.602Z,17.48
2022-12-18T05:26:40.180Z,14.95
2022-12-18T05:29:43.699Z,16.88
2022-12-18T05:32:45.767Z,16.52
2022-12-18T05:35:56.181Z,14.35
2022-12-18T05:38:58.255Z,15.68
2022-12-18T05:42:00.368Z,17.13
2022-12-18T05:45:02.471Z,16.42
2022-12-18T05:48:05.285Z,16.70
2022-12-18T05:51:15.640Z,15.93
2022-12-18T05:54:17.723Z,14.10
2022-12-18T05:57:19.778Z,17.40
2022-12-18T06:00:21.846Z,15.80
2022-12-18T06:03:26.837Z,17.13
2022-12-18T06:06:31.361Z,17.73
2022-12-18T06:09:33.609Z,16.80
2022-12-18T06:12:35.801Z,17.02
2022-12-18T06:15:38.649Z,17.52
2022-12-18T06:18:40.710Z,14.98
2022-12-18T06:21:42.951Z,17.23
2022-12-18T06:24:44.907Z,17.98
2022-12-18T06:27:49.183Z,16.85
2022-12-18T06:30:51.652Z,19.52
2022-12-18T06:33:53.898Z,19.38
2022-12-18T06:36:56.056Z,18.88
2022-12-18T06:39:58.264Z,19.40
2022-12-18T06:43:00.420Z,20.38
2022-12-18T06:46:03.229Z,20.73
2022-12-18T06:49:05.453Z,16.40
2022-12-18T06:52:07.654Z,19.63
2022-12-18T06:55:09.761Z,18.98
2022-12-18T06:58:11.710Z,18.17
2022-12-18T07:01:15.105Z,15.52
2022-12-18T07:04:17.251Z,16.20
2022-12-18T07:07:20.742Z,15.80
2022-12-18T07:10:25.962Z,15.55
2022-12-18T07:13:28.356Z,15.02
2022-12-18T07:16:30.662Z,15.40
2022-12-18T07:19:37.396Z,16.20
2022-12-18T07:22:41.421Z,11.20
2022-12-18T07:25:43.884Z,7.97
2022-12-18T07:28:47.717Z,17.30
2022-12-18T07:31:52.232Z,17.52
2022-12-18T07:34:54.246Z,17.10
2022-12-18T07:37:56.392Z,17.77
2022-12-18T07:41:07.446Z,17.63
2022-12-18T07:44:13.673Z,17.08
2022-12-18T07:47:20.999Z,18.25
2022-12-18T07:50:27.447Z,16.40
2022-12-18T07:53:37.177Z,17.88
2022-12-18T07:56:39.752Z,16.33
2022-12-18T07:59:41.887Z,17.27
2022-12-18T08:02:44.229Z,17.85
2022-12-18T08:05:49.423Z,18.10
2022-12-18T08:08:55.677Z,18.08
2022-12-18T08:11:59.713Z,16.42
2022-12-18T08:15:02.073Z,18.92
2022-12-18T08:18:05.983Z,16.15
2022-12-18T08:21:17.390Z,15.55
2022-12-18T08:24:20.852Z,17.35
2022-12-18T08:27:30.415Z,17.77
2022-12-18T08:30:32.728Z,17.10
2022-12-18T08:33:36.055Z,17.30
2022-12-18T08:36:38.184Z,17.90
2022-12-18T08:39:40.291Z,15.95
2022-12-18T08:43:02.969Z,15.75
2022-12-18T08:46:09.292Z,15.98
2022-12-18T08:49:13.764Z,17.20
2022-12-18T08:52:16.273Z,15.43
2022-12-18T08:55:20.279Z,15.88
2022-12-18T08:58:25.657Z,13.73
2022-12-18T09:01:29.690Z,12.60
2022-12-18T09:04:31.917Z,16.48
2022-12-18T09:07:41.786Z,14.52
2022-12-18T09:10:49.083Z,15.18
2022-12-18T09:13:51.291Z,14.05
2022-12-18T09:16:53.386Z,14.48
2022-12-18T09:19:55.702Z,16.17
2022-12-18T09:23:09.910Z,15.40
2022-12-18T09:26:13.412Z,14.98
2022-12-18T09:29:18.466Z,16.08
2022-12-18T09:32:22.733Z,14.18
2022-12-18T09:35:25.738Z,15.35
2022-12-18T09:38:27.818Z,16.75
2022-12-18T09:41:52.025Z,16.38
2022-12-18T09:44:55.551Z,17.73
2022-12-18T09:48:05.148Z,17.20
2022-12-18T09:51:17.295Z,19.67
2022-12-18T09:54:25.714Z,20.05
2022-12-18T09:57:35.827Z,17.48
2022-12-18T10:04:25.681Z,20.70
2022-12-18T10:07:49.328Z,18.15
2022-12-18T10:11:17.139Z,16.35
2022-12-18T10:14:45.538Z,17.75
2022-12-18T10:18:18.776Z,14.90
2022-12-18T10:21:42.767Z,21.30
2022-12-18T10:24:56.616Z,20.88
2022-12-18T10:28:14.613Z,18.20
2022-12-18T10:31:20.397Z,15.15
2022-12-18T10:34:26.045Z,19.52
2022-12-18T10:37:31.042Z,18.42
2022-12-18T10:41:12.615Z,16.30
2022-12-18T10:44:37.738Z,13.77
2022-12-18T10:47:50.917Z,13.15
2022-12-18T10:51:12.896Z,12.88
2022-12-18T10:54:24.326Z,14.63
2022-12-18T10:57:42.999Z,13.48
2022-12-18T11:00:45.893Z,10.98
2022-12-18T11:04:02.664Z,14.90
2022-12-18T11:07:10.015Z,12.48
2022-12-18T11:10:19.913Z,12.68
2022-12-18T11:13:25.107Z,12.25
2022-12-18T11:16:29.032Z,11.80
2022-12-18T11:19:40.041Z,10.30
2022-12-18T11:22:56.869Z,11.18
2022-12-18T11:26:02.747Z,10.32
2022-12-18T11:29:18.223Z,7.63
2022-12-18T11:32:33.776Z,10.07
2022-12-18T11:35:44.645Z,13.38
2022-12-18T11:38:48.240Z,7.80
2022-12-18T11:42:12.789Z,9.60
2022-12-18T11:45:15.505Z,8.38
2022-12-18T11:48:33.635Z,9.23
2022-12-18T11:51:46.702Z,9.93
2022-12-18T11:54:52.871Z,11.35
2022-12-18T11:58:04.248Z,12.70
2022-12-18T12:01:27.454Z,13.63
2022-12-18T12:04:44.901Z,12.02
2022-12-18T12:08:07.514Z,12.82
2022-12-18T12:11:20.370Z,15.40
2022-12-18T12:14:40.463Z,10.73
2022-12-18T12:17:45.928Z,9.90
2022-12-18T12:20:47.993Z,11.50
2022-12-18T12:24:25.553Z,11.25
2022-12-18T12:27:38.398Z,10.18
2022-12-18T12:31:00.871Z,12.02
2022-12-18T12:34:17.375Z,11.70
2022-12-18T12:37:47.360Z,14.35
2022-12-18T12:41:02.437Z,14.98
2022-12-18T12:44:11.618Z,14.30
2022-12-18T12:47:21.842Z,10.90
2022-12-18T12:50:24.856Z,11.95
2022-12-18T12:53:37.483Z,10.25
2022-12-18T12:56:49.599Z,12.07
2022-12-18T13:00:07.678Z,12.43
2022-12-18T13:03:22.301Z,15.07
2022-12-18T13:06:51.948Z,14.05
2022-12-18T13:10:17.201Z,16.75
2022-12-18T13:13:23.249Z,15.63
2022-12-18T13:16:28.868Z,14.40
2022-12-18T13:19:32.433Z,17.35
2022-12-18T13:22:43.134Z,12.05
2022-12-18T13:25:45.243Z,13.15
2022-12-18T13:28:47.375Z,12.73
2022-12-18T13:31:49.457Z,11.00
2022-12-18T13:35:19.705Z,13.27
2022-12-18T13:38:33.731Z,20.35
2022-12-18T13:41:35.823Z,14.32
2022-12-18T13:44:43.103Z,11.40
2022-12-18T13:47:45.506Z,11.68
2022-12-18T13:51:01.799Z,14.88
2022-12-18T13:54:21.311Z,10.52
2022-12-18T13:57:32.895Z,12.07
2022-12-18T14:00:35.735Z,11.93
2022-12-18T14:03:38.978Z,11.48
2022-12-18T14:06:41.588Z,9.57
2022-12-18T14:09:50.109Z,12.15
2022-12-18T14:13:00.365Z,12.75
2022-12-18T14:16:08.681Z,11.55
2022-12-18T14:19:16.977Z,13.93
2022-12-18T14:22:31.931Z,13.48
2022-12-18T14:25:36.439Z,13.18
2022-12-18T14:28:45.397Z,12.68
2022-12-18T14:31:47.996Z,12.60
2022-12-18T14:34:52.958Z,16.25
2022-12-18T14:37:55.368Z,13.73
2022-12-18T14:41:20.694Z,16.13
2022-12-18T14:44:22.822Z,15.43
2022-12-18T14:47:24.902Z,14.35
2022-12-18T14:50:27.661Z,15.68
2022-12-18T14:53:54.420Z,13.45
2022-12-18T14:57:24.454Z,16.27
2022-12-18T15:00:27.282Z,14.80
2022-12-18T15:03:29.612Z,16.00
2022-12-18T15:06:31.727Z,15.60
2022-12-18T15:09:34.145Z,14.30
2022-12-18T15:12:42.724Z,12.85
2022-12-18T15:18:50.869Z,13.75
2022-12-18T15:21:53.001Z,14.63
2022-12-18T15:25:00.047Z,11.95
2022-12-18T15:28:02.341Z,14.32
2022-12-18T15:31:24.230Z,13.77
2022-12-18T15:34:30.939Z,12.93
2022-12-18T15:37:32.956Z,12.32
2022-12-18T15:40:34.979Z,12.10
2022-12-18T15:43:39.597Z,11.10
2022-12-18T15:46:41.913Z,12.00
2022-12-18T15:49:44.092Z,12.05
2022-12-18T15:52:48.848Z,10.68
2022-12-18T15:56:09.503Z,12.25
2022-12-18T15:59:15.757Z,11.65
2022-12-18T16:02:20.225Z,11.27
2022-12-18T16:05:24.416Z,11.65
2022-12-18T16:08:26.487Z,12.55
2022-12-18T16:11:39.819Z,12.45
2022-12-18T16:14:42.289Z,11.18
2022-12-18T16:17:45.419Z,10.73
2022-12-18T16:20:49.949Z,11.80
2022-12-18T16:23:52.059Z,9.90
2022-12-18T16:26:55.850Z,9.90
2022-12-18T16:29:59.735Z,11.30
2022-12-18T16:33:02.756Z,11.55
2022-12-18T16:36:04.974Z,10.77
2022-12-18T16:39:07.271Z,10.70
2022-12-18T16:42:20.790Z,10.88
2022-12-18T16:45:24.593Z,10.95
2022-12-18T16:48:28.177Z,10.25
2022-12-18T16:51:31.733Z,11.93
2022-12-18T16:54:39.547Z,11.68
2022-12-18T16:57:41.568Z,11.98
2022-12-18T17:00:50.973Z,12.02
2022-12-18T17:03:58.677Z,10.98
2022-12-18T17:07:00.864Z,10.87
2022-12-18T17:10:03.277Z,10.98
2022-12-18T17:13:05.842Z,11.57
2022-12-18T17:16:12.395Z,11.27
2022-12-18T17:19:17.666Z,9.27
2022-12-18T17:22:21.453Z,9.52
2022-12-18T17:25:23.557Z,12.35
2022-12-18T17:28:28.281Z,10.82
2022-12-18T17:31:35.289Z,11.07
2022-12-18T17:34:37.898Z,11.07
2022-12-18T17:37:39.970Z,10.77
2022-12-18T17:40:46.233Z,11.35
2022-12-18T17:44:07.762Z,10.90
2022-12-18T17:47:12.254Z,10.63
2022-12-18T17:50:16.336Z,7.60
2022-12-18T17:53:18.658Z,9.30
2022-12-18T17:56:23.497Z,9.15
2022-12-18T17:59:25.802Z,8.63
2022-12-18T18:02:29.497Z,8.35
2022-12-18T18:05:32.324Z,8.88
2022-12-18T18:08:35.641Z,6.97
2022-12-18T18:11:58.208Z,7.93
2022-12-18T18:15:00.336Z,9.25
2022-12-18T18:18:05.902Z,5.63
2022-12-18T18:21:09.063Z,7.25
2022-12-18T18:24:17.770Z,7.20
2022-12-18T18:27:20.128Z,6.10
2022-12-18T18:30:22.630Z,7.13
2022-12-18T18:33:24.850Z,7.78
2022-12-18T18:36:27.578Z,6.95
2022-12-18T18:39:29.774Z,6.47
2022-12-18T18:42:32.834Z,7.57
2022-12-18T18:45:34.935Z,7.32
2022-12-18T18:48:37.868Z,7.03
2022-12-18T18:51:42.521Z,6.32
2022-12-18T18:55:11.165Z,7.32
2022-12-18T18:58:06.849Z,6.57
2022-12-18T19:01:13.225Z,6.65
2022-12-18T19:04:15.391Z,6.43
2022-12-18T19:07:26.554Z,6.25
2022-12-18T19:10:33.824Z,6.15
2022-12-18T19:13:37.128Z,6.30
2022-12-18T19:16:44.580Z,6.60
2022-12-18T19:19:48.162Z,6.40
2022-12-18T19:22:55.025Z,7.07
2022-12-18T19:26:28.831Z,5.90
2022-12-18T19:29:29.728Z,6.50
2022-12-18T19:32:31.965Z,5.65
2022-12-18T19:35:34.120Z,6.95
2022-12-18T19:38:36.437Z,5.78
2022-12-18T19:41:39.070Z,7.40
2022-12-18T19:44:41.891Z,7.68
2022-12-18T19:47:44.421Z,6.63
2022-12-18T19:50:50.633Z,6.60
2022-12-18T19:53:58.967Z,8.38
2022-12-18T19:57:03.083Z,8.52
2022-12-18T20:00:05.801Z,7.13
2022-12-18T20:03:24.267Z,6.78
2022-12-18T20:06:51.731Z,7.93
2022-12-18T20:13:32.134Z,6.82
2022-12-18T20:17:23.233Z,7.47
2022-12-18T20:23:28.225Z,8.13
2022-12-18T20:26:31.038Z,6.15
2022-12-18T20:29:33.827Z,7.13
2022-12-18T20:32:37.239Z,7.70
2022-12-18T20:35:39.499Z,8.00
2022-12-18T20:38:42.192Z,8.27
2022-12-18T20:41:46.405Z,9.10
2022-12-18T20:44:50.972Z,7.97
2022-12-18T20:47:56.097Z,8.82
2022-12-18T20:51:06.691Z,8.32
2022-12-18T20:54:11.942Z,8.75
2022-12-18T20:57:17.542Z,8.80
2022-12-18T21:00:21.356Z,10.00
2022-12-18T21:03:27.119Z,9.55
2022-12-18T21:06:29.660Z,10.18
2022-12-18T21:09:38.001Z,10.02
2022-12-18T21:13:00.112Z,9.38
2022-12-18T21:16:07.922Z,10.80
2022-12-18T21:19:25.815Z,9.80
2022-12-18T21:22:30.593Z,10.98
2022-12-18T21:25:33.595Z,9.75
2022-12-18T21:28:36.162Z,11.20
2022-12-18T21:31:39.297Z,10.98
2022-12-18T21:34:47.861Z,11.32
2022-12-18T21:37:50.437Z,10.13
2022-12-18T21:40:55.496Z,8.63
2022-12-18T21:44:15.389Z,10.77
2022-12-18T21:47:22.272Z,8.23
2022-12-18T21:50:25.786Z,8.77
2022-12-18T21:53:28.666Z,8.43
2022-12-18T21:56:56.992Z,9.38
2022-12-18T21:59:59.099Z,8.90
2022-12-18T22:03:17.930Z,9.38
2022-12-18T22:06:22.825Z,8.20
2022-12-18T22:09:25.742Z,9.23
2022-12-18T22:12:43.349Z,8.48
2022-12-18T22:15:47.255Z,9.23
2022-12-18T22:18:50.008Z,9.25
2022-12-18T22:21:53.088Z,8.07
2022-12-18T22:24:55.816Z,8.40
2022-12-18T22:28:25.224Z,11.05
2022-12-18T22:31:27.331Z,9.13
2022-12-18T22:34:34.224Z,9.52
2022-12-18T22:37:38.568Z,8.88
2022-12-18T22:40:41.097Z,9.50
2022-12-18T22:43:43.336Z,9.10
2022-12-18T22:46:53.065Z,8.13
2022-12-18T22:50:07.018Z,9.65
2022-12-18T22:53:09.422Z,9.40
2022-12-18T22:56:20.126Z,7.30
2022-12-18T22:59:24.071Z,7.65
2022-12-18T23:02:28.999Z,9.23
2022-12-18T23:05:31.533Z,8.55
2022-12-18T23:08:34.872Z,9.00
2022-12-18T23:11:37.507Z,9.25
2022-12-18T23:14:39.998Z,8.68
2022-12-18T23:17:44.472Z,9.02
2022-12-18T23:20:48.687Z,8.68
2022-12-18T23:23:51.008Z,9.25
2022-12-18T23:26:53.280Z,8.27
2022-12-18T23:29:57.146Z,9.45
2022-12-18T23:33:01.231Z,9.43
2022-12-18T23:36:04.831Z,10.85
2022-12-18T23:39:08.699Z,10.45
2022-12-18T23:42:12.898Z,10.20
2022-12-18T23:45:18.135Z,8.82
2022-12-18T23:48:22.107Z,7.65
2022-12-18T23:51:28.476Z,9.88
2022-12-18T23:54:33.514Z,9.25
2022-12-18T23:57:36.255Z,10.98
